Cabo San Vicente — 3ERK3 — position and weather

sailwx.info

Track history (hours):
 
Tides and Currents Weather Stations Pressure Air Temp Water Temp Dewpoint Dewpoint Depression Visibility Wind Speed Wind Dir Waves Ship Positions

Cabo San Vicente

Last reported at 2017-Nov-19 04:03 UTC. Time now 2017-Nov-23 01:41 UTC.
Position N 32°23' W 117°35'.

Length 228 m; draft 8.4 m.

Type: Tanker. MMSI: 356022000.

Date/timePositionNaut miles runAvg speedWind from/ knotsBaromVisibWave heightAir tempDewpointWater temp
2017-Nov-19 04:03N 32°23' W 117°35'110.9
2017-Nov-19 03:56N 32°24' W 117°35'511.0
2017-Nov-19 03:30N 32°29' W 117°37'510.1
2017-Nov-19 03:01N 32°33' W 117°39'5 9.9
2017-Nov-19 02:30N 32°38' W 117°41'510.8
2017-Nov-19 02:00N 32°43' W 117°44'510.9
2017-Nov-19 01:31N 32°48' W 117°47'510.8
2017-Nov-19 01:00N 32°53' W 117°50'511.0
2017-Nov-19 00:30N 32°57' W 117°53'611.1
2017-Nov-19 00:00N 33°02' W 117°56'611.2
2017-Nov-18 23:30N 33°07' W 117°59'511.1
2017-Nov-18 23:00N 33°12' W 118°02'610.9
2017-Nov-18 22:25N 33°18' W 118°06'510.7
2017-Nov-18 21:59N 33°22' W 118°08'611.2
2017-Nov-18 21:24N 33°28' W 118°10'511.4
2017-Nov-18 21:00N 33°32' W 118°12'6 9.3
2017-Nov-18 20:22N 33°38' W 118°12'5 0.1
2017-Nov-17 10:27N 33°43' W 118°15'3 0.1
2017-Nov-15 13:47N 33°45' W 118°16'1 2.7
2017-Nov-15 13:28N 33°44' W 118°17'1 2.8
2017-Nov-15 13:00N 33°43' W 118°16'2 4.8
2017-Nov-15 12:30N 33°43' W 118°13'0 0.1
2017-Nov-15 11:06N 33°43' W 118°13'0 0.0
2017-Nov-15 07:54N 33°44' W 118°13'0 0.0
2017-Nov-15 07:06N 33°44' W 118°13'0 0.0
2017-Nov-15 07:00N 33°44' W 118°13'0 0.0
2017-Nov-15 06:24N 33°44' W 118°13'0 0.0
2017-Nov-15 06:00N 33°44' W 118°13'0 0.0
2017-Nov-14 19:42N 33°44' W 118°13'0 0.0
2017-Nov-14 09:18N 33°43' W 118°13'0 0.0
2017-Nov-14 04:00N 33°43' W 118°13'0 0.1
2017-Nov-14 01:12N 33°43' W 118°13'0 0.1
2017-Nov-14 01:00N 33°44' W 118°13'0 0.0
2017-Nov-14 00:30N 33°44' W 118°13'0 0.0
2017-Nov-14 00:00N 33°44' W 118°13'0 0.0
2017-Nov-13 23:30N 33°44' W 118°13'0 0.0
2017-Nov-13 23:00N 33°44' W 118°13'0 0.0
2017-Nov-13 22:30N 33°44' W 118°13'0 0.0
2017-Nov-12 21:18N 33°44' W 118°13'0 0.0
2017-Nov-12 20:54N 33°44' W 118°13'0 0.0
2017-Nov-12 15:51N 33°43' W 118°13'0 0.1
2017-Nov-12 15:15N 33°43' W 118°13'0 0.2
2017-Nov-12 14:57N 33°44' W 118°13'1 2.5
2017-Nov-12 14:30N 33°44' W 118°12'5 6.7
2017-Nov-12 13:42N 33°39' W 118°10'2 7.6
2017-Nov-12 13:30N 33°37' W 118°10'4 7.8
2017-Nov-12 13:00N 33°33' W 118°09'5 8.9
2017-Nov-12 12:28N 33°29' W 118°07'4 8.5
2017-Nov-12 12:00N 33°25' W 118°05'16 9.0
2017-Nov-12 10:15N 33°11' W 117°58'2 9.5
2017-Nov-12 10:00N 33°08' W 117°56'510.1
2017-Nov-12 09:30N 33°04' W 117°54'510.4
2017-Nov-12 09:00N 32°59' W 117°51'510.5
2017-Nov-12 08:30N 32°54' W 117°49'510.7
2017-Nov-12 08:00N 32°49' W 117°46'510.6
2017-Nov-12 07:30N 32°45' W 117°44'510.8
2017-Nov-12 07:00N 32°40' W 117°41'510.5
2017-Nov-12 06:30N 32°34' W 117°39'5 7.7
2017-Nov-12 05:54N 32°31' W 117°36'1 3.4
2017-Nov-12 05:30N 32°30' W 117°36'21 9.8
2017-Nov-12 03:21N 32°09' W 117°28'14 8.8
2017-Nov-12 01:43N 31°56' W 117°22'1 0.8
2017-Nov-12 00:00N 31°57' W 117°22'2 2.3
2017-Nov-11 23:09N 31°55' W 117°22'1 1.0
2017-Nov-11 22:08N 31°55' W 117°23'22710.4
2017-Nov-11 00:18N 28°21' W 115°57'  
Track history (hours):
 
Tides and Currents Weather Stations Pressure Air Temp Water Temp Dewpoint Dewpoint Depression Visibility Wind Speed Wind Dir Waves Ship Positions

Cabo San Vicente

Last reported at 2017-Nov-19 04:03 UTC. Time now 2017-Nov-23 01:41 UTC.
Position N 32°23' W 117°35'.

Length 228 m; draft 8.4 m.

Type: Tanker. MMSI: 356022000.

Date/timePositionNaut miles runAvg speedWind from/ knotsBaromVisibWave heightAir tempDewpointWater temp
2017-Nov-19 04:03N 32°23' W 117°35'110.9
2017-Nov-19 03:56N 32°24' W 117°35'511.0
2017-Nov-19 03:30N 32°29' W 117°37'510.1
2017-Nov-19 03:01N 32°33' W 117°39'5 9.9
2017-Nov-19 02:30N 32°38' W 117°41'510.8
2017-Nov-19 02:00N 32°43' W 117°44'510.9
2017-Nov-19 01:31N 32°48' W 117°47'510.8
2017-Nov-19 01:00N 32°53' W 117°50'511.0
2017-Nov-19 00:30N 32°57' W 117°53'611.1
2017-Nov-19 00:00N 33°02' W 117°56'611.2
2017-Nov-18 23:30N 33°07' W 117°59'511.1
2017-Nov-18 23:00N 33°12' W 118°02'610.9
2017-Nov-18 22:25N 33°18' W 118°06'510.7
2017-Nov-18 21:59N 33°22' W 118°08'611.2
2017-Nov-18 21:24N 33°28' W 118°10'511.4
2017-Nov-18 21:00N 33°32' W 118°12'6 9.3
2017-Nov-18 20:22N 33°38' W 118°12'5 0.1
2017-Nov-17 10:27N 33°43' W 118°15'3 0.1
2017-Nov-15 13:47N 33°45' W 118°16'1 2.7
2017-Nov-15 13:28N 33°44' W 118°17'1 2.8
2017-Nov-15 13:00N 33°43' W 118°16'2 4.8
2017-Nov-15 12:30N 33°43' W 118°13'0 0.1
2017-Nov-15 11:06N 33°43' W 118°13'0 0.0
2017-Nov-15 07:54N 33°44' W 118°13'0 0.0
2017-Nov-15 07:06N 33°44' W 118°13'0 0.0
2017-Nov-15 07:00N 33°44' W 118°13'0 0.0
2017-Nov-15 06:24N 33°44' W 118°13'0 0.0
2017-Nov-15 06:00N 33°44' W 118°13'0 0.0
2017-Nov-14 19:42N 33°44' W 118°13'0 0.0
2017-Nov-14 09:18N 33°43' W 118°13'0 0.0
2017-Nov-14 04:00N 33°43' W 118°13'0 0.1
2017-Nov-14 01:12N 33°43' W 118°13'0 0.1
2017-Nov-14 01:00N 33°44' W 118°13'0 0.0
2017-Nov-14 00:30N 33°44' W 118°13'0 0.0
2017-Nov-14 00:00N 33°44' W 118°13'0 0.0
2017-Nov-13 23:30N 33°44' W 118°13'0 0.0
2017-Nov-13 23:00N 33°44' W 118°13'0 0.0
2017-Nov-13 22:30N 33°44' W 118°13'0 0.0
2017-Nov-12 21:18N 33°44' W 118°13'0 0.0
2017-Nov-12 20:54N 33°44' W 118°13'0 0.0
2017-Nov-12 15:51N 33°43' W 118°13'0 0.1
2017-Nov-12 15:15N 33°43' W 118°13'0 0.2
2017-Nov-12 14:57N 33°44' W 118°13'1 2.5
2017-Nov-12 14:30N 33°44' W 118°12'5 6.7
2017-Nov-12 13:42N 33°39' W 118°10'2 7.6
2017-Nov-12 13:30N 33°37' W 118°10'4 7.8
2017-Nov-12 13:00N 33°33' W 118°09'5 8.9
2017-Nov-12 12:28N 33°29' W 118°07'4 8.5
2017-Nov-12 12:00N 33°25' W 118°05'16 9.0
2017-Nov-12 10:15N 33°11' W 117°58'2 9.5
2017-Nov-12 10:00N 33°08' W 117°56'510.1
2017-Nov-12 09:30N 33°04' W 117°54'510.4
2017-Nov-12 09:00N 32°59' W 117°51'510.5
2017-Nov-12 08:30N 32°54' W 117°49'510.7
2017-Nov-12 08:00N 32°49' W 117°46'510.6
2017-Nov-12 07:30N 32°45' W 117°44'510.8
2017-Nov-12 07:00N 32°40' W 117°41'510.5
2017-Nov-12 06:30N 32°34' W 117°39'5 7.7
2017-Nov-12 05:54N 32°31' W 117°36'1 3.4
2017-Nov-12 05:30N 32°30' W 117°36'21 9.8
2017-Nov-12 03:21N 32°09' W 117°28'14 8.8
2017-Nov-12 01:43N 31°56' W 117°22'1 0.8
2017-Nov-12 00:00N 31°57' W 117°22'2 2.3
2017-Nov-11 23:09N 31°55' W 117°22'1 1.0
2017-Nov-11 22:08N 31°55' W 117°23'22710.4
2017-Nov-11 00:18N 28°21' W 115°57'  

Dump ship's entire track history